De Soto, Iowa
Current Conditions -  °F | °C
As of 5:54 PM on Saturday 25 Oct 2014 (Local Time) from KDSM Reporting Station
Clear Clear  
Wind Chill: 68°   Ceiling: Unl
Heat Index: 68°   Visibility: 10mi
Dew Point: 35°   Wind: 6mph
Humidity: 30%   Direction: 20°NNE
Pressure: 30.06"   Gusts: NA
Location:  41.53°N, 94.01°W
Report Text: KDSM 252254Z 02005KT 10SM CLR 20/02 A3006 RMK AO2 SLP176 T02000017
Loading
Personal Weather Stations






























Interactive Weather Map
Tropical Storm Tracking
New forecast layout! Learn more

10-Day Weather Forecast

Advertisements
Track Severe Weather on mobile